Parkersburg, Iowa
Current Conditions -  °F | °C
As of 3:03 PM on Friday 24 Oct 2014 (Local Time) from KALO Reporting Station
Haze Haze  
Wind Chill: 58°   Ceiling: 400
Heat Index: 58°   Visibility: 2mi
Dew Point: 57°   Wind: 8mph
Humidity: 97%   Direction: 170°S
Pressure: 29.89"   Gusts: NA
Location:  42.58°N, 92.79°W
Report Text: KALO 242003Z 17007KT 2SM BR OVC004 14/14 A2989 RMK AO2 T01440139
Loading
Personal Weather Stations






























Interactive Weather Map
Tropical Storm Tracking
New forecast layout! Learn more

10-Day Weather Forecast

Advertisements
Track Severe Weather on mobile